San Fernando, California
Current Conditions -  °F | °C
As of 2:51 AM on Sunday 23 Nov 2014 (Local Time) from KVNY Reporting Station
Clear Clear  
Wind Chill: 63°   Ceiling: Unl
Heat Index: 63°   Visibility: 10mi
Dew Point: 42°   Wind: 18mph
Humidity: 46%   Direction: 350°N
Pressure: 30.05"   Gusts: 28mph
Location:  34.28°N, 118.43°W
Report Text: KVNY 231051Z 35016G24KT 10SM CLR 17/06 A3005 RMK AO2 PK WND 36030/1032 SLP170 T01720056
Loading
Personal Weather Stations






























Interactive Weather Map New forecast layout! Learn more

10-Day Weather Forecast

Advertisements
Track Severe Weather on mobile